Time;durP1;ratioP1;P1;durP2;ratioP2;P2;SDS_P1;SDS_P2;PMS_P1;PMS_P2;Temp;Humidity;BMP_temperature;BMP_pressure;BME280_temperature;BME280_humidity;BME280_pressure;Samples;Min_cycle;Max_cycle;Signal;HPM_P1;HPM_P2
2021/12/23 00:00:24;;;;;;;17.43;8.60;;;-8.70;93.90;;;;;;2081215;28;20426;-71
2021/12/23 00:01:24;;;;;;;17.53;7.87;;;-8.80;93.80;;;;;;2083973;28;20180;-68
2021/12/23 00:02:25;;;;;;;16.47;7.20;;;-8.80;93.90;;;;;;2081472;28;20363;-73
2021/12/23 00:03:26;;;;;;;13.73;6.83;;;-8.80;94.10;;;;;;2080152;28;20193;-68
2021/12/23 00:04:26;;;;;;;16.47;8.17;;;-8.80;94.30;;;;;;2071918;28;20175;-67
2021/12/23 00:05:27;;;;;;;17.17;8.23;;;-8.70;94.40;;;;;;2071950;28;20180;-68
2021/12/23 00:06:28;;;;;;;15.17;7.70;;;-8.70;94.50;;;;;;2080281;28;20797;-69
2021/12/23 00:07:28;;;;;;;16.40;8.47;;;-8.70;94.50;;;;;;2080742;28;20179;-69
2021/12/23 00:08:29;;;;;;;21.40;9.33;;;-8.80;94.50;;;;;;2081773;28;20188;-68
2021/12/23 00:10:01;;;;;;;18.67;7.50;;;-8.80;94.50;;;;;;2086060;28;20200;-69
2021/12/23 00:10:50;;;;;;;16.80;7.65;;;-8.80;94.60;;;;;;2080395;28;20243;-69
2021/12/23 00:11:51;;;;;;;18.73;9.07;;;-8.80;94.50;;;;;;2080244;28;20247;-69
2021/12/23 00:12:51;;;;;;;20.70;8.33;;;-8.90;94.20;;;;;;2084445;28;20191;-70
2021/12/23 00:14:07;;;;;;;17.47;9.20;;;-8.90;94.00;;;;;;2083969;28;20183;-68
2021/12/23 00:15:27;;;;;;;17.65;8.25;;;-8.90;94.00;;;;;;2080024;28;20172;-68
2021/12/23 00:16:42;;;;;;;15.40;6.97;;;-8.80;94.10;;;;;;2080787;28;20164;-68
2021/12/23 00:17:56;;;;;;;16.85;7.65;;;-8.80;94.10;;;;;;2080406;28;20261;-68
2021/12/23 00:19:04;;;;;;;14.80;7.50;;;-8.80;94.20;;;;;;2085881;28;20179;-67
2021/12/23 00:23:51;;;;;;;16.27;7.28;;;-8.90;94.00;;;;;;2084034;28;20202;-71
2021/12/23 00:24:52;;;;;;;14.50;8.27;;;-8.80;94.10;;;;;;2080032;28;20216;-67
2021/12/23 00:26:00;;;;;;;18.13;8.30;;;-8.80;93.90;;;;;;2079860;28;20204;-68
2021/12/23 00:27:02;;;;;;;16.55;7.55;;;-8.80;93.90;;;;;;2080668;28;20635;-68
2021/12/23 00:28:03;;;;;;;12.55;7.00;;;-8.80;94.00;;;;;;2079938;28;20600;-70
2021/12/23 00:29:04;;;;;;;16.52;7.32;;;-8.80;94.00;;;;;;2079877;28;20359;-70
2021/12/23 00:30:06;;;;;;;21.43;8.20;;;-8.80;94.10;;;;;;2081225;28;20892;-70
2021/12/23 00:31:07;;;;;;;16.88;8.07;;;-8.80;93.90;;;;;;2081071;28;20187;-70
2021/12/23 00:32:08;;;;;;;17.67;7.67;;;-8.80;93.90;;;;;;2080780;28;20282;-70
2021/12/23 00:33:09;;;;;;;17.85;8.23;;;-8.80;93.80;;;;;;2080638;28;20265;-70
2021/12/23 00:34:10;;;;;;;17.00;8.20;;;-8.80;93.80;;;;;;2080689;28;20883;-70
2021/12/23 00:35:11;;;;;;;15.45;7.20;;;-8.70;93.70;;;;;;2080334;28;20254;-70
2021/12/23 00:36:13;;;;;;;16.40;7.43;;;-8.70;93.70;;;;;;2080654;28;20195;-70
2021/12/23 00:37:14;;;;;;;18.83;7.78;;;-8.70;93.70;;;;;;2072509;28;20191;-70
2021/12/23 00:38:23;;;;;;;15.77;6.67;;;-8.70;93.60;;;;;;2080763;28;20191;-70
2021/12/23 00:39:25;;;;;;;16.75;7.68;;;-8.70;93.60;;;;;;2081220;28;20258;-70
2021/12/23 00:40:26;;;;;;;16.38;7.50;;;-8.70;93.50;;;;;;2081376;28;20215;-69
2021/12/23 00:41:30;;;;;;;13.90;6.87;;;-8.70;93.50;;;;;;2081225;28;20527;-70
2021/12/23 00:42:32;;;;;;;17.02;7.15;;;-8.70;93.70;;;;;;2080987;28;20187;-70
2021/12/23 00:43:33;;;;;;;14.27;7.65;;;-8.70;93.80;;;;;;2081257;28;20212;-70
2021/12/23 00:44:36;;;;;;;15.27;7.00;;;-8.70;93.80;;;;;;2080475;28;20227;-70
2021/12/23 00:45:37;;;;;;;14.02;6.85;;;-8.70;94.00;;;;;;2080792;28;20261;-70
2021/12/23 00:46:39;;;;;;;14.50;6.57;;;-8.70;94.00;;;;;;2080663;28;20243;-70
2021/12/23 00:47:39;;;;;;;17.17;9.40;;;-8.70;93.90;;;;;;2080453;28;20183;-69
2021/12/23 00:48:41;;;;;;;15.50;6.63;;;-8.70;93.90;;;;;;2072538;28;20186;-69
2021/12/23 00:49:41;;;;;;;18.75;7.55;;;-8.70;94.00;;;;;;2072469;28;20216;-69
2021/12/23 00:50:43;;;;;;;16.53;7.73;;;-8.70;94.00;;;;;;2080570;28;20177;-70
2021/12/23 00:51:43;;;;;;;19.00;8.98;;;-8.70;93.90;;;;;;2080618;28;20177;-73
2021/12/23 00:52:45;;;;;;;14.70;7.63;;;-8.70;93.70;;;;;;2080460;28;20626;-69
2021/12/23 00:53:49;;;;;;;16.77;8.13;;;-8.70;93.70;;;;;;2080723;28;20190;-70
2021/12/23 00:54:50;;;;;;;23.48;7.20;;;-8.70;93.80;;;;;;2080477;28;20187;-69
2021/12/23 00:55:54;;;;;;;15.70;7.67;;;-8.70;93.70;;;;;;2080535;28;20247;-70
2021/12/23 00:56:55;;;;;;;16.23;8.15;;;-8.70;93.80;;;;;;2072677;28;20184;-70
2021/12/23 00:57:55;;;;;;;15.43;7.53;;;-8.70;93.90;;;;;;2072411;28;20196;-70
2021/12/23 00:58:56;;;;;;;17.83;7.93;;;-8.70;94.00;;;;;;2080711;28;20196;-70
2021/12/23 00:59:58;;;;;;;15.40;7.13;;;-8.70;94.10;;;;;;2081119;28;20305;-70
2021/12/23 01:01:00;;;;;;;11.15;6.85;;;-8.80;94.00;;;;;;2081081;28;20172;-70
2021/12/23 01:02:03;;;;;;;15.15;7.43;;;-8.80;94.00;;;;;;2076819;28;20241;-71
2021/12/23 01:03:04;;;;;;;16.25;6.88;;;-8.80;94.50;;;;;;2075301;28;20185;-70
2021/12/23 01:04:05;;;;;;;12.30;7.13;;;-8.70;94.00;;;;;;2077506;28;20279;-70
2021/12/23 01:05:06;;;;;;;13.03;7.43;;;-8.70;93.80;;;;;;2081030;28;20195;-69
2021/12/23 01:06:07;;;;;;;13.05;7.00;;;-8.70;93.80;;;;;;2080479;28;20203;-71
2021/12/23 01:07:07;;;;;;;15.60;6.30;;;-8.70;93.60;;;;;;2080484;28;20274;-70
2021/12/23 01:08:09;;;;;;;16.13;7.63;;;-8.70;93.50;;;;;;2081119;28;20576;-70
2021/12/23 01:09:10;;;;;;;18.33;7.07;;;-8.60;93.40;;;;;;2081197;28;20193;-70
2021/12/23 01:10:11;;;;;;;12.40;6.97;;;-8.60;93.40;;;;;;2080305;28;20184;-70
2021/12/23 01:11:12;;;;;;;10.25;5.05;;;-8.60;93.30;;;;;;2072545;28;20263;-70
2021/12/23 01:12:16;;;;;;;11.50;5.70;;;-8.60;93.40;;;;;;2080580;28;20186;-69
2021/12/23 01:13:19;;;;;;;13.15;6.43;;;-8.60;93.50;;;;;;2080563;28;20255;-70
2021/12/23 01:18:07;;;;;;;10.50;5.13;;;-8.60;93.70;;;;;;2076645;28;20226;-70
2021/12/23 01:19:12;;;;;;;11.90;5.38;;;-8.60;93.60;;;;;;2072176;28;20237;-70
2021/12/23 01:20:12;;;;;;;9.93;4.78;;;-8.60;93.80;;;;;;2082284;28;20195;-70
2021/12/23 01:21:16;;;;;;;13.40;6.33;;;-8.60;93.70;;;;;;2082800;28;20188;-70
2021/12/23 01:22:18;;;;;;;10.93;5.50;;;-8.60;93.70;;;;;;2082075;28;20221;-70
2021/12/23 01:23:23;;;;;;;11.75;5.45;;;-8.60;93.70;;;;;;2083106;28;20653;-70
2021/12/23 01:24:28;;;;;;;10.75;5.45;;;-8.60;93.70;;;;;;2082206;28;20183;-70
2021/12/23 01:25:30;;;;;;;14.70;6.70;;;-8.60;93.70;;;;;;2082199;28;20655;-70
2021/12/23 01:26:31;;;;;;;9.82;5.32;;;-8.60;93.60;;;;;;2082668;28;20175;-70
2021/12/23 01:27:31;;;;;;;12.37;6.13;;;-8.60;93.60;;;;;;2082532;28;20198;-70
2021/12/23 01:28:32;;;;;;;12.23;5.67;;;-8.60;93.50;;;;;;2082542;28;20183;-70
2021/12/23 01:29:33;;;;;;;13.67;5.80;;;-8.50;93.60;;;;;;2082457;28;20199;-70
2021/12/23 01:30:37;;;;;;;10.63;4.90;;;-8.50;93.60;;;;;;2082406;28;20192;-70
2021/12/23 01:31:39;;;;;;;10.40;5.32;;;-8.50;93.60;;;;;;2082611;28;20271;-70
2021/12/23 01:32:40;;;;;;;11.60;4.90;;;-8.50;93.60;;;;;;2082428;28;20226;-70
2021/12/23 01:33:41;;;;;;;10.52;4.90;;;-8.40;93.50;;;;;;2082521;28;20692;-70
2021/12/23 01:34:41;;;;;;;9.83;5.00;;;-8.40;93.50;;;;;;2082358;28;20177;-70
2021/12/23 01:35:45;;;;;;;13.90;5.63;;;-8.40;93.40;;;;;;2082574;28;20168;-70
2021/12/23 01:36:45;;;;;;;12.48;6.28;;;-8.30;93.40;;;;;;2082265;28;20174;-70
2021/12/23 01:37:47;;;;;;;12.67;5.30;;;-8.30;93.30;;;;;;2082589;28;20198;-70
2021/12/23 01:38:47;;;;;;;11.00;5.47;;;-8.30;93.40;;;;;;2081947;28;20180;-70
2021/12/23 01:39:48;;;;;;;11.13;5.90;;;-8.30;93.30;;;;;;2081423;28;20265;-69
2021/12/23 01:40:49;;;;;;;14.47;5.87;;;-8.30;93.30;;;;;;2081808;28;20177;-67
2021/12/23 01:41:49;;;;;;;17.03;7.33;;;-8.30;93.20;;;;;;2081078;28;20176;-69
2021/12/23 01:42:51;;;;;;;15.77;7.23;;;-8.30;93.20;;;;;;2081055;28;20766;-68
2021/12/23 01:43:53;;;;;;;11.93;6.22;;;-8.30;93.20;;;;;;2081851;28;20268;-68
2021/12/23 01:44:53;;;;;;;14.57;7.15;;;-8.20;93.20;;;;;;2082380;28;20209;-76
2021/12/23 01:45:54;;;;;;;16.50;7.20;;;-8.20;93.10;;;;;;2081812;28;20202;-69
2021/12/23 01:46:55;;;;;;;18.00;7.30;;;-8.20;92.90;;;;;;2081759;28;20755;-69
2021/12/23 01:47:57;;;;;;;15.90;7.20;;;-8.20;92.80;;;;;;2081729;28;20181;-69
2021/12/23 01:48:58;;;;;;;21.42;7.43;;;-8.20;92.80;;;;;;2081833;28;20210;-68
2021/12/23 01:49:58;;;;;;;21.50;8.40;;;-8.20;92.70;;;;;;2081735;28;20293;-69
2021/12/23 01:51:00;;;;;;;26.50;9.23;;;-8.20;92.60;;;;;;2081901;28;20186;-69
2021/12/23 01:52:00;;;;;;;16.17;8.13;;;-8.20;92.50;;;;;;2082397;28;20180;-69
2021/12/23 01:53:01;;;;;;;21.33;8.57;;;-8.20;92.40;;;;;;2082285;28;20215;-69
2021/12/23 01:54:03;;;;;;;22.60;8.82;;;-8.20;92.40;;;;;;2082574;28;20423;-69
2021/12/23 01:55:06;;;;;;;24.38;9.32;;;-8.20;92.40;;;;;;2081728;28;20563;-69
2021/12/23 01:56:06;;;;;;;16.38;8.27;;;-8.20;92.30;;;;;;2073820;28;20176;-69
2021/12/23 01:57:08;;;;;;;20.30;8.27;;;-8.20;92.30;;;;;;2073498;28;20185;-69
2021/12/23 01:58:10;;;;;;;20.23;8.75;;;-8.20;92.30;;;;;;2081870;28;20695;-69
2021/12/23 01:59:11;;;;;;;18.70;9.00;;;-8.10;92.40;;;;;;2082308;28;20188;-69
2021/12/23 02:00:20;;;;;;;26.83;9.03;;;-8.10;92.40;;;;;;2082273;28;20176;-69
2021/12/23 02:01:22;;;;;;;22.73;8.57;;;-8.20;92.50;;;;;;2081745;28;20256;-69
2021/12/23 02:02:23;;;;;;;25.60;8.88;;;-8.10;92.50;;;;;;2073606;28;20188;-69
2021/12/23 02:03:23;;;;;;;21.10;8.73;;;-8.10;92.50;;;;;;2073671;28;20191;-70
2021/12/23 02:04:24;;;;;;;20.90;8.90;;;-8.10;92.40;;;;;;2081639;28;20187;-69
2021/12/23 02:05:25;;;;;;;20.37;8.10;;;-8.10;92.40;;;;;;2082031;28;20195;-69
2021/12/23 02:06:25;;;;;;;16.43;7.60;;;-8.10;92.40;;;;;;2082214;28;20226;-69
2021/12/23 02:07:26;;;;;;;21.70;8.83;;;-8.10;92.40;;;;;;2082246;28;20172;-69
2021/12/23 02:08:27;;;;;;;18.70;7.70;;;-8.10;92.40;;;;;;2081670;28;20560;-69
2021/12/23 02:09:27;;;;;;;17.83;7.77;;;-8.10;92.40;;;;;;2081643;28;20199;-69
2021/12/23 02:10:29;;;;;;;16.33;8.23;;;-8.10;92.40;;;;;;2082199;28;20184;-69
2021/12/23 02:11:30;;;;;;;15.48;7.03;;;-8.10;92.40;;;;;;2081701;28;20178;-69
2021/12/23 02:12:30;;;;;;;18.17;8.37;;;-8.10;92.70;;;;;;2081711;28;20534;-69
2021/12/23 02:13:32;;;;;;;20.50;7.87;;;-8.10;92.70;;;;;;2082253;28;20202;-69
2021/12/23 02:14:33;;;;;;;19.20;7.45;;;-8.10;92.70;;;;;;2082165;28;20669;-69
2021/12/23 02:15:33;;;;;;;14.17;6.47;;;-8.20;92.90;;;;;;2082217;28;20207;-69
2021/12/23 02:16:34;;;;;;;16.90;7.57;;;-8.20;93.00;;;;;;2082062;28;20226;-69
2021/12/23 02:17:36;;;;;;;15.67;6.90;;;-8.20;93.20;;;;;;2082210;28;20258;-69
2021/12/23 02:18:37;;;;;;;17.15;7.45;;;-8.20;93.10;;;;;;2081394;28;20183;-69
2021/12/23 02:19:38;;;;;;;14.33;6.83;;;-8.20;93.30;;;;;;2081560;28;20213;-69
2021/12/23 02:20:38;;;;;;;14.10;6.60;;;-8.20;93.50;;;;;;2081954;28;20177;-69
2021/12/23 02:21:42;;;;;;;22.27;8.27;;;-8.20;93.50;;;;;;2082208;28;20183;-69
2021/12/23 02:22:44;;;;;;;14.65;6.68;;;-8.20;93.40;;;;;;2082271;28;20207;-69
2021/12/23 02:23:45;;;;;;;16.58;6.20;;;-8.10;93.40;;;;;;2082282;28;20199;-69
2021/12/23 02:24:45;;;;;;;11.93;6.10;;;-8.10;93.40;;;;;;2081301;28;20187;-69
2021/12/23 02:25:46;;;;;;;15.03;7.27;;;-8.00;93.40;;;;;;2081487;28;20266;-69
2021/12/23 02:26:48;;;;;;;11.90;5.70;;;-8.00;93.30;;;;;;2081930;28;20647;-69
2021/12/23 02:27:51;;;;;;;17.25;7.10;;;-8.00;93.40;;;;;;2082243;28;20184;-69
2021/12/23 02:28:51;;;;;;;14.63;6.85;;;-8.00;93.40;;;;;;2082073;28;20215;-69
2021/12/23 02:29:52;;;;;;;16.67;6.47;;;-8.00;93.50;;;;;;2082058;28;20197;-69
2021/12/23 02:30:54;;;;;;;13.87;6.67;;;-7.90;93.50;;;;;;2082096;28;20180;-69
2021/12/23 02:31:55;;;;;;;17.67;7.32;;;-7.90;93.50;;;;;;2081485;28;20181;-69
2021/12/23 02:32:57;;;;;;;13.77;7.05;;;-7.80;93.60;;;;;;2073047;28;20199;-69
2021/12/23 02:33:58;;;;;;;15.10;6.43;;;-7.90;93.70;;;;;;2081518;28;20206;-69
2021/12/23 02:34:58;;;;;;;15.27;7.18;;;-7.80;93.70;;;;;;2081874;28;20244;-69
2021/12/23 02:36:00;;;;;;;15.87;7.43;;;-7.80;93.70;;;;;;2082172;28;20703;-68
2021/12/23 02:37:01;;;;;;;14.38;6.00;;;-7.80;93.70;;;;;;2081383;28;20271;-69
2021/12/23 02:38:02;;;;;;;15.03;6.23;;;-7.70;93.70;;;;;;2073230;28;20183;-69
2021/12/23 02:39:03;;;;;;;13.30;6.03;;;-7.70;93.60;;;;;;2081215;28;20518;-69
2021/12/23 02:40:06;;;;;;;14.13;6.70;;;-7.70;93.70;;;;;;2081978;28;20841;-68
2021/12/23 02:41:07;;;;;;;14.88;6.28;;;-7.70;93.80;;;;;;2081312;28;20188;-69
2021/12/23 02:42:09;;;;;;;17.73;6.83;;;-7.60;93.90;;;;;;2081434;28;20194;-69
2021/12/23 02:43:17;;;;;;;16.48;7.20;;;-7.60;93.90;;;;;;2081357;28;20188;-69
2021/12/23 02:44:18;;;;;;;11.98;5.38;;;-7.60;93.80;;;;;;2081973;28;20178;-72
2021/12/23 02:45:19;;;;;;;16.63;7.03;;;-7.50;93.90;;;;;;2081234;28;20239;-68
2021/12/23 02:46:20;;;;;;;14.20;6.33;;;-7.50;93.80;;;;;;2081436;28;20181;-68
2021/12/23 02:47:21;;;;;;;14.55;6.53;;;-7.50;93.80;;;;;;2073075;28;20191;-69
2021/12/23 02:48:34;;;;;;;14.70;6.78;;;-7.50;93.80;;;;;;2073532;28;20197;-69
2021/12/23 02:49:34;;;;;;;13.80;5.90;;;-7.40;93.90;;;;;;2081972;28;20278;-69
2021/12/23 02:50:35;;;;;;;16.37;6.73;;;-7.40;93.80;;;;;;2081909;28;20195;-69
2021/12/23 02:51:37;;;;;;;16.10;6.20;;;-7.30;93.70;;;;;;2081940;28;20171;-69
2021/12/23 02:52:38;;;;;;;14.40;6.95;;;-7.30;93.60;;;;;;2081297;28;20656;-69
2021/12/23 02:53:41;;;;;;;13.07;6.50;;;-7.30;93.60;;;;;;2081188;28;20224;-69
2021/12/23 02:54:42;;;;;;;14.13;6.47;;;-7.20;93.50;;;;;;2081215;28;20183;-69
2021/12/23 02:55:43;;;;;;;11.63;5.97;;;-7.20;93.50;;;;;;2064879;28;20321;-69
2021/12/23 02:56:44;;;;;;;14.50;6.50;;;-7.20;93.50;;;;;;2065215;28;20186;-69
2021/12/23 02:57:46;;;;;;;15.20;6.27;;;-7.20;93.50;;;;;;2072963;28;20803;-69
2021/12/23 02:58:46;;;;;;;18.73;7.20;;;-7.10;93.60;;;;;;2073357;28;20178;-69
2021/12/23 02:59:47;;;;;;;15.13;7.13;;;-7.10;93.70;;;;;;2081244;28;20713;-69
2021/12/23 03:00:51;;;;;;;16.23;6.97;;;-7.20;93.80;;;;;;2081901;28;20172;-69
2021/12/23 03:01:52;;;;;;;13.90;6.05;;;-7.10;93.80;;;;;;2081160;28;20271;-70
2021/12/23 03:02:52;;;;;;;14.27;6.50;;;-7.10;93.80;;;;;;2079150;28;21021;-69
2021/12/23 03:03:53;;;;;;;14.90;6.93;;;-7.10;93.90;;;;;;2073564;28;20178;-69
2021/12/23 03:04:54;;;;;;;13.80;6.73;;;-7.10;93.90;;;;;;2073613;28;20183;-69
2021/12/23 03:05:58;;;;;;;15.20;6.73;;;-7.00;94.00;;;;;;2073620;28;20252;-69
2021/12/23 03:06:59;;;;;;;15.45;6.57;;;-7.00;94.10;;;;;;2072973;28;20204;-69
2021/12/23 03:08:01;;;;;;;14.50;6.63;;;-6.90;94.00;;;;;;2073048;28;20651;-69
2021/12/23 03:09:04;;;;;;;15.23;7.10;;;-6.90;94.00;;;;;;2072897;28;20181;-69
2021/12/23 03:10:09;;;;;;;15.38;6.40;;;-6.80;93.90;;;;;;2065149;28;20190;-69
2021/12/23 03:11:14;;;;;;;15.05;6.20;;;-6.80;93.80;;;;;;2065536;28;20629;-69
2021/12/23 03:12:15;;;;;;;14.27;7.25;;;-6.80;93.90;;;;;;2072887;28;20182;-69
2021/12/23 03:13:15;;;;;;;14.07;6.83;;;-6.80;93.90;;;;;;2072973;28;20236;-69
2021/12/23 03:14:16;;;;;;;17.50;6.93;;;-6.80;93.90;;;;;;2073098;28;20186;-68
2021/12/23 03:15:17;;;;;;;14.73;7.43;;;-6.80;93.90;;;;;;2072811;28;20691;-69
2021/12/23 03:16:24;;;;;;;14.30;6.25;;;-6.80;93.90;;;;;;2073426;28;20184;-70
2021/12/23 03:17:25;;;;;;;15.15;6.80;;;-6.70;94.00;;;;;;2073489;28;20188;-69
2021/12/23 03:18:26;;;;;;;14.73;6.20;;;-6.70;93.90;;;;;;2073529;28;20180;-69
2021/12/23 03:19:27;;;;;;;15.85;6.28;;;-6.70;93.90;;;;;;2072858;28;20186;-69
2021/12/23 03:20:27;;;;;;;14.00;6.87;;;-6.60;93.90;;;;;;2072909;28;20181;-69
2021/12/23 03:21:28;;;;;;;14.53;6.57;;;-6.60;93.80;;;;;;2073657;28;20177;-69
2021/12/23 03:22:29;;;;;;;15.17;6.53;;;-6.60;93.70;;;;;;2072919;28;20245;-69
2021/12/23 03:23:30;;;;;;;14.70;6.40;;;-6.50;93.80;;;;;;2072829;28;20653;-69
2021/12/23 03:24:31;;;;;;;12.93;6.55;;;-6.50;93.70;;;;;;2073254;28;20181;-71
2021/12/23 03:25:31;;;;;;;16.47;8.07;;;-6.50;93.70;;;;;;2073486;28;20189;-69
2021/12/23 03:26:32;;;;;;;12.67;5.80;;;-6.50;93.70;;;;;;2073197;28;20185;-69
2021/12/23 03:27:33;;;;;;;15.07;7.10;;;-6.50;93.70;;;;;;2073358;28;20641;-69
2021/12/23 03:28:34;;;;;;;13.70;6.28;;;-6.50;93.60;;;;;;2073625;28;20180;-69
2021/12/23 03:29:35;;;;;;;12.60;5.80;;;-6.40;93.60;;;;;;2072635;28;20216;-68
2021/12/23 03:30:36;;;;;;;19.00;6.47;;;-6.40;93.70;;;;;;2072920;28;20189;-69
2021/12/23 03:31:38;;;;;;;15.95;7.07;;;-6.40;93.70;;;;;;2072850;28;20178;-69
2021/12/23 03:32:38;;;;;;;13.23;6.53;;;-6.40;93.50;;;;;;2072794;28;20264;-68
2021/12/23 03:33:39;;;;;;;13.33;6.70;;;-6.30;93.60;;;;;;2073113;28;20201;-68
2021/12/23 03:34:40;;;;;;;12.07;6.43;;;-6.30;93.70;;;;;;2072633;28;20177;-69
2021/12/23 03:35:41;;;;;;;15.13;7.23;;;-6.30;93.60;;;;;;2072617;28;20188;-69
2021/12/23 03:36:42;;;;;;;15.50;7.27;;;-6.30;93.60;;;;;;2073255;28;20180;-69
2021/12/23 03:37:43;;;;;;;17.03;7.07;;;-6.30;93.60;;;;;;2072630;28;20174;-69
2021/12/23 03:38:44;;;;;;;14.63;6.65;;;-6.30;93.70;;;;;;2072645;28;20867;-68
2021/12/23 03:39:47;;;;;;;15.80;6.83;;;-6.30;93.80;;;;;;2073156;28;20201;-68
2021/12/23 03:40:49;;;;;;;14.85;6.20;;;-6.30;93.70;;;;;;2073274;28;20256;-69
2021/12/23 03:41:50;;;;;;;14.73;6.28;;;-6.30;93.80;;;;;;2073250;28;20182;-68
2021/12/23 03:42:51;;;;;;;14.27;7.75;;;-6.20;93.80;;;;;;2073245;28;20174;-68
2021/12/23 03:43:52;;;;;;;13.63;6.60;;;-6.20;93.80;;;;;;2073174;28;20555;-68
2021/12/23 03:44:53;;;;;;;16.20;6.63;;;-6.20;93.70;;;;;;2071993;28;20262;-68
2021/12/23 03:45:53;;;;;;;15.23;7.03;;;-6.20;93.70;;;;;;2072634;28;20170;-68
2021/12/23 03:46:54;;;;;;;16.30;6.50;;;-6.20;93.70;;;;;;2073209;28;20178;-68
2021/12/23 03:47:55;;;;;;;13.60;6.87;;;-6.20;93.70;;;;;;2072423;28;20185;-68
2021/12/23 03:48:55;;;;;;;16.80;6.83;;;-6.20;93.70;;;;;;2064419;28;20557;-68
2021/12/23 03:49:56;;;;;;;15.23;6.83;;;-6.10;93.80;;;;;;2072486;28;20208;-68
2021/12/23 03:50:57;;;;;;;15.23;7.10;;;-6.20;93.70;;;;;;2073217;28;20649;-68
2021/12/23 03:51:57;;;;;;;13.07;6.83;;;-6.20;93.70;;;;;;2073144;28;20220;-68
2021/12/23 03:52:58;;;;;;;15.53;6.77;;;-6.20;93.70;;;;;;2073118;28;20207;-68
2021/12/23 03:53:59;;;;;;;13.77;6.87;;;-6.10;93.80;;;;;;2073174;28;20177;-68
2021/12/23 03:55:02;;;;;;;16.45;6.93;;;-6.10;93.80;;;;;;2075127;28;20236;-68
2021/12/23 03:56:03;;;;;;;18.30;7.38;;;-6.20;93.80;;;;;;2081282;28;20181;-68
2021/12/23 03:57:04;;;;;;;14.33;6.33;;;-6.10;93.90;;;;;;2081357;28;20236;-68
2021/12/23 03:58:05;;;;;;;11.73;5.97;;;-6.20;93.90;;;;;;2080628;28;20199;-68
2021/12/23 03:59:06;;;;;;;18.37;7.90;;;-6.20;93.90;;;;;;2080623;28;20201;-68
2021/12/23 04:00:11;;;;;;;16.97;7.60;;;-6.10;93.90;;;;;;2081215;28;20923;-68
2021/12/23 04:01:12;;;;;;;14.68;7.03;;;-6.10;93.80;;;;;;2080663;28;20322;-68
2021/12/23 04:02:13;;;;;;;16.50;6.72;;;-6.10;93.80;;;;;;2080663;28;20181;-68
2021/12/23 04:03:14;;;;;;;14.90;6.95;;;-6.10;94.40;;;;;;2072446;28;20196;-68
2021/12/23 04:04:15;;;;;;;14.13;6.53;;;-6.20;94.00;;;;;;2072553;28;20202;-68
2021/12/23 04:05:16;;;;;;;17.57;7.63;;;-6.20;94.10;;;;;;2081081;28;20603;-68
2021/12/23 04:06:18;;;;;;;15.15;7.07;;;-6.10;94.10;;;;;;2080577;28;20193;-69
2021/12/23 04:07:20;;;;;;;15.73;7.85;;;-6.10;94.10;;;;;;2080540;28;20618;-68
2021/12/23 04:08:20;;;;;;;16.77;6.53;;;-6.20;94.00;;;;;;2080759;28;20181;-68
2021/12/23 04:09:21;;;;;;;16.33;7.23;;;-6.20;94.10;;;;;;2072342;28;20552;-68
2021/12/23 04:10:22;;;;;;;18.70;7.80;;;-6.10;94.10;;;;;;2080628;28;20234;-68
2021/12/23 04:11:24;;;;;;;15.95;7.38;;;-6.20;94.20;;;;;;2081288;28;20185;-68
2021/12/23 04:12:24;;;;;;;17.50;7.53;;;-6.20;94.20;;;;;;2081275;28;20316;-68
2021/12/23 04:13:27;;;;;;;20.23;8.33;;;-6.30;94.40;;;;;;2080503;28;20271;-68
2021/12/23 04:14:28;;;;;;;16.83;6.47;;;-6.30;94.40;;;;;;2080736;28;20177;-68
2021/12/23 04:15:28;;;;;;;18.87;8.43;;;-6.30;94.40;;;;;;2080504;28;20527;-68
2021/12/23 04:16:29;;;;;;;17.83;8.40;;;-6.30;94.50;;;;;;2081172;28;20177;-68
2021/12/23 04:17:30;;;;;;;16.90;7.77;;;-6.30;94.60;;;;;;2081179;28;20166;-68
2021/12/23 04:18:31;;;;;;;18.77;7.72;;;-6.30;94.70;;;;;;2081292;28;20227;-68
2021/12/23 04:19:32;;;;;;;13.87;6.80;;;-6.40;94.80;;;;;;2081081;28;20196;-68
2021/12/23 04:20:46;;;;;;;17.90;8.10;;;-6.30;94.80;;;;;;2081296;28;20181;-68
2021/12/23 04:21:47;;;;;;;12.18;6.13;;;-6.30;94.80;;;;;;2081086;28;20188;-68
2021/12/23 04:22:51;;;;;;;16.50;7.17;;;-6.30;94.70;;;;;;2080654;28;20205;-68
2021/12/23 04:23:52;;;;;;;17.85;7.40;;;-6.30;94.70;;;;;;2072907;28;20176;-68
2021/12/23 04:24:53;;;;;;;16.90;7.63;;;-6.30;94.70;;;;;;2080474;28;20177;-68
2021/12/23 04:25:55;;;;;;;15.07;6.20;;;-6.30;94.70;;;;;;2081184;28;20187;-68
2021/12/23 04:26:56;;;;;;;15.30;7.10;;;-6.40;94.70;;;;;;2080970;28;20251;-68
2021/12/23 04:28:01;;;;;;;15.73;6.60;;;-6.40;94.70;;;;;;2081102;28;20655;-68
2021/12/23 04:29:03;;;;;;;16.13;6.70;;;-6.40;94.80;;;;;;2080587;28;20165;-68
2021/12/23 04:30:07;;;;;;;13.93;6.97;;;-6.40;94.70;;;;;;2080594;28;20189;-68
2021/12/23 04:31:08;;;;;;;14.38;5.82;;;-6.40;94.80;;;;;;2080538;28;20184;-68
2021/12/23 04:32:09;;;;;;;18.20;7.17;;;-6.40;94.60;;;;;;2080468;28;20542;-68
2021/12/23 04:33:11;;;;;;;12.93;6.50;;;-6.40;94.60;;;;;;2081071;28;20205;-69
2021/12/23 04:34:12;;;;;;;13.85;6.57;;;-6.40;94.60;;;;;;2080605;28;20180;-68
2021/12/23 04:35:13;;;;;;;14.30;6.70;;;-6.40;94.70;;;;;;2080443;28;20185;-68
2021/12/23 04:36:15;;;;;;;15.75;7.40;;;-6.50;94.80;;;;;;2080442;28;21002;-68
2021/12/23 04:37:16;;;;;;;11.90;6.32;;;-6.50;94.80;;;;;;2072425;28;20189;-68
2021/12/23 04:38:17;;;;;;;19.03;7.07;;;-6.50;94.90;;;;;;2080461;28;20739;-68
2021/12/23 04:39:17;;;;;;;17.03;7.27;;;-6.50;95.00;;;;;;2080515;28;20181;-68
2021/12/23 04:40:18;;;;;;;16.43;7.23;;;-6.50;95.10;;;;;;2080470;28;20181;-68
2021/12/23 04:41:19;;;;;;;12.70;6.30;;;-6.60;95.00;;;;;;2081145;28;20176;-68
2021/12/23 04:42:20;;;;;;;15.60;7.13;;;-6.60;95.60;;;;;;2081089;28;20651;-68
2021/12/23 04:43:20;;;;;;;12.65;6.60;;;-6.50;95.20;;;;;;2080515;28;20181;-68
2021/12/23 04:44:21;;;;;;;16.27;7.67;;;-6.50;95.20;;;;;;2080518;28;20199;-68
2021/12/23 04:45:22;;;;;;;16.13;6.90;;;-6.60;95.10;;;;;;2080294;28;20196;-68
2021/12/23 04:46:22;;;;;;;16.80;7.30;;;-6.60;95.10;;;;;;2072360;28;20263;-68
2021/12/23 04:47:23;;;;;;;16.77;7.33;;;-6.60;95.40;;;;;;2080489;28;20193;-68
2021/12/23 04:48:24;;;;;;;22.43;12.03;;;-6.60;95.50;;;;;;2080413;28;20192;-68
2021/12/23 04:49:24;;;;;;;22.97;11.37;;;-6.60;95.60;;;;;;2080462;28;20292;-68
2021/12/23 04:50:25;;;;;;;17.77;8.73;;;-6.60;95.60;;;;;;2081052;28;20192;-68
2021/12/23 04:51:26;;;;;;;16.03;7.57;;;-6.60;95.60;;;;;;2081128;28;20877;-68
2021/12/23 04:52:27;;;;;;;15.40;6.53;;;-6.70;95.60;;;;;;2081120;28;20957;-68
2021/12/23 04:53:28;;;;;;;15.67;6.80;;;-6.70;95.70;;;;;;2080456;28;20708;-68
2021/12/23 04:54:28;;;;;;;17.43;7.73;;;-6.70;95.60;;;;;;2072290;28;20275;-68
2021/12/23 04:55:30;;;;;;;16.33;6.50;;;-6.70;95.70;;;;;;2072330;28;20216;-68
2021/12/23 04:56:31;;;;;;;14.80;6.90;;;-6.70;95.60;;;;;;2080601;28;20188;-68
2021/12/23 04:57:32;;;;;;;18.80;8.53;;;-6.70;95.50;;;;;;2082706;28;20191;-68
2021/12/23 04:58:33;;;;;;;17.67;8.47;;;-6.70;95.50;;;;;;2082741;28;20222;-68
2021/12/23 04:59:33;;;;;;;14.43;7.20;;;-6.70;95.40;;;;;;2082051;28;20726;-68
2021/12/23 05:00:35;;;;;;;14.60;6.60;;;-6.80;95.30;;;;;;2082249;28;20180;-69
2021/12/23 05:01:35;;;;;;;18.08;8.13;;;-6.80;95.40;;;;;;2082693;28;20211;-68
2021/12/23 05:02:36;;;;;;;18.23;7.73;;;-6.70;95.50;;;;;;2082150;28;20846;-68
2021/12/23 05:03:37;;;;;;;15.93;7.17;;;-6.80;95.40;;;;;;2082174;28;20526;-68
2021/12/23 05:04:37;;;;;;;13.20;6.70;;;-6.80;95.30;;;;;;2082529;28;20181;-69
2021/12/23 05:05:38;;;;;;;12.47;6.37;;;-6.80;95.20;;;;;;2082022;28;20234;-68
2021/12/23 05:06:40;;;;;;;15.83;7.00;;;-6.80;95.00;;;;;;2082204;28;20652;-68
2021/12/23 05:07:41;;;;;;;16.02;6.40;;;-6.80;95.00;;;;;;2082711;28;20181;-69
2021/12/23 05:08:43;;;;;;;18.73;7.32;;;-6.80;95.10;;;;;;2078034;28;20540;-70
2021/12/23 05:09:44;;;;;;;18.67;8.27;;;-6.80;95.10;;;;;;2073717;28;20211;-68
2021/12/23 05:10:45;;;;;;;16.42;6.78;;;-6.90;95.00;;;;;;2073832;28;20217;-68
2021/12/23 05:11:46;;;;;;;14.25;6.18;;;-6.90;95.00;;;;;;2073827;28;20185;-68
2021/12/23 05:12:47;;;;;;;17.63;8.17;;;-6.80;95.20;;;;;;2074409;28;20197;-68
2021/12/23 05:13:48;;;;;;;17.10;8.33;;;-6.90;95.10;;;;;;2073779;28;20561;-68
2021/12/23 05:14:48;;;;;;;18.43;7.90;;;-6.90;95.20;;;;;;2073606;28;20268;-68
2021/12/23 05:15:49;;;;;;;14.73;7.37;;;-6.80;95.10;;;;;;2074360;28;20471;-70
2021/12/23 05:16:50;;;;;;;18.90;8.60;;;-6.80;95.10;;;;;;2073744;28;20185;-68
2021/12/23 05:17:50;;;;;;;15.03;7.67;;;-6.80;95.10;;;;;;2073782;28;20178;-69
2021/12/23 05:18:51;;;;;;;24.73;8.87;;;-6.80;95.10;;;;;;2074499;28;20558;-68
2021/12/23 05:19:52;;;;;;;17.80;8.53;;;-6.80;95.30;;;;;;2074239;28;20235;-68
2021/12/23 05:20:52;;;;;;;16.27;7.27;;;-6.80;95.40;;;;;;2074419;28;20192;-68
2021/12/23 05:21:53;;;;;;;17.07;7.73;;;-6.90;95.50;;;;;;2074374;28;20216;-68
2021/12/23 05:22:55;;;;;;;17.17;9.20;;;-6.90;95.70;;;;;;2074445;28;20185;-69
2021/12/23 05:23:56;;;;;;;13.32;7.40;;;-6.80;95.80;;;;;;2074360;28;20435;-68